Time;durP1;ratioP1;P1;durP2;ratioP2;P2;SDS_P1;SDS_P2;PMS_P1;PMS_P2;Temp;Humidity;BMP_temperature;BMP_pressure;BME280_temperature;BME280_humidity;BME280_pressure;Samples;Min_cycle;Max_cycle;Signal;HPM_P1;HPM_P2
2021/05/03 00:02:04;;;;;;;1.73;1.63;;;10.70;53.20;;;;;;4722596;30;20041;-86
2021/05/03 00:04:30;;;;;;;1.77;1.42;;;10.70;53.30;;;;;;4737360;30;20522;-86
2021/05/03 00:06:56;;;;;;;1.45;1.35;;;10.60;53.20;;;;;;4743006;30;20032;-87
2021/05/03 00:09:22;;;;;;;1.50;1.40;;;10.60;53.30;;;;;;4751260;30;20095;-86
2021/05/03 00:11:47;;;;;;;2.03;1.60;;;10.60;53.30;;;;;;4727810;30;20047;-86
2021/05/03 00:14:13;;;;;;;1.63;1.40;;;10.60;53.40;;;;;;4751995;30;20068;-86
2021/05/03 00:16:39;;;;;;;1.83;1.60;;;10.50;53.40;;;;;;4716580;30;20671;-85
2021/05/03 00:19:05;;;;;;;1.60;1.50;;;10.50;53.40;;;;;;4733625;30;20048;-86
2021/05/03 00:21:31;;;;;;;1.65;1.50;;;10.50;53.40;;;;;;4730682;30;20037;-87
2021/05/03 00:23:57;;;;;;;1.92;1.73;;;10.50;53.50;;;;;;4736083;30;20056;-87
2021/05/03 00:26:22;;;;;;;2.70;1.73;;;10.40;53.50;;;;;;4741728;30;20138;-87
2021/05/03 00:28:48;;;;;;;2.45;1.90;;;10.40;53.60;;;;;;4733400;30;20505;-87
2021/05/03 00:31:14;;;;;;;1.75;1.60;;;10.40;53.60;;;;;;4728765;30;20052;-86
2021/05/03 00:33:40;;;;;;;2.08;1.65;;;10.40;53.60;;;;;;4738716;30;20051;-86
2021/05/03 00:36:06;;;;;;;1.65;1.50;;;10.30;53.60;;;;;;4725922;30;20117;-85
2021/05/03 00:38:32;;;;;;;1.60;1.50;;;10.40;53.70;;;;;;4720365;30;20033;-85
2021/05/03 00:41:00;;;;;;;1.92;1.65;;;10.30;53.70;;;;;;4756559;30;20052;-86
2021/05/03 00:43:26;;;;;;;2.50;1.83;;;10.30;53.80;;;;;;4762427;30;20067;-85
2021/05/03 00:45:52;;;;;;;1.70;1.60;;;10.30;53.70;;;;;;4753326;30;20048;-85
2021/05/03 00:48:19;;;;;;;2.30;1.80;;;10.30;53.80;;;;;;4735867;30;20036;-85
2021/05/03 00:50:46;;;;;;;2.55;1.80;;;10.20;53.80;;;;;;4742933;30;20490;-85
2021/05/03 00:53:12;;;;;;;1.95;1.60;;;10.20;53.80;;;;;;4736840;30;20045;-86
2021/05/03 00:55:38;;;;;;;1.55;1.40;;;10.20;53.90;;;;;;4752016;30;20056;-86
2021/05/03 00:58:05;;;;;;;1.63;1.50;;;10.10;53.80;;;;;;4712374;30;20051;-86
2021/05/03 01:00:32;;;;;;;1.67;1.58;;;10.10;53.80;;;;;;4726838;30;20047;-85
2021/05/03 01:02:59;;;;;;;2.15;1.65;;;10.10;53.90;;;;;;4728677;30;20499;-85
2021/05/03 01:05:28;;;;;;;1.90;1.60;;;10.10;53.90;;;;;;4741968;30;20127;-86
2021/05/03 01:07:55;;;;;;;2.30;1.52;;;10.10;54.00;;;;;;4750110;30;20104;-85
2021/05/03 01:10:21;;;;;;;1.90;1.58;;;10.00;54.00;;;;;;4756460;30;20040;-84
2021/05/03 01:12:48;;;;;;;1.60;1.40;;;10.00;54.00;;;;;;4734932;30;20053;-85
2021/05/03 01:15:14;;;;;;;1.95;1.70;;;10.00;54.00;;;;;;4735891;30;20100;-86
2021/05/03 01:17:41;;;;;;;2.42;1.70;;;10.00;54.00;;;;;;4736387;30;20132;-85
2021/05/03 01:20:12;;;;;;;1.58;1.48;;;10.00;54.10;;;;;;4720952;30;20037;-86
2021/05/03 01:22:39;;;;;;;1.63;1.40;;;9.90;54.00;;;;;;4727897;30;20045;-85
2021/05/03 01:25:07;;;;;;;1.77;1.67;;;9.90;54.10;;;;;;4736071;30;20067;-87
2021/05/03 01:27:34;;;;;;;2.13;1.50;;;9.90;54.10;;;;;;4734910;30;20024;-86
2021/05/03 01:30:02;;;;;;;2.10;1.85;;;9.90;54.20;;;;;;4735091;30;20048;-86
2021/05/03 01:32:29;;;;;;;1.83;1.63;;;9.80;54.20;;;;;;4745756;30;20044;-86
2021/05/03 01:34:55;;;;;;;2.20;1.63;;;9.80;54.20;;;;;;4716739;30;20033;-86
2021/05/03 01:37:21;;;;;;;1.73;1.55;;;9.80;54.20;;;;;;4732420;30;20037;-86
2021/05/03 01:39:47;;;;;;;1.88;1.60;;;9.80;54.30;;;;;;4743610;30;20036;-86
2021/05/03 01:42:13;;;;;;;1.50;1.40;;;9.70;54.90;;;;;;4737579;30;20043;-86
2021/05/03 01:44:40;;;;;;;2.17;1.75;;;9.70;54.30;;;;;;4735073;30;20060;-86
2021/05/03 01:47:06;;;;;;;2.05;1.65;;;9.70;54.30;;;;;;4746675;30;20143;-86
2021/05/03 01:49:32;;;;;;;3.58;1.92;;;9.70;54.40;;;;;;4728509;30;20044;-86
2021/05/03 01:51:59;;;;;;;2.60;1.85;;;9.60;54.30;;;;;;4742754;30;20112;-86
2021/05/03 01:54:25;;;;;;;1.80;1.60;;;9.70;54.40;;;;;;4739602;30;20037;-85
2021/05/03 01:56:51;;;;;;;2.63;2.10;;;9.60;54.40;;;;;;4727615;30;20211;-87
2021/05/03 01:59:17;;;;;;;2.45;1.98;;;9.60;54.40;;;;;;4723362;30;20070;-87
2021/05/03 02:01:43;;;;;;;2.25;1.80;;;9.60;54.50;;;;;;4719828;30;20052;-86
2021/05/03 02:04:09;;;;;;;2.45;1.80;;;9.50;54.50;;;;;;4740834;30;20036;-87
2021/05/03 02:06:39;;;;;;;1.90;1.67;;;9.50;54.50;;;;;;4746253;30;20112;-87
2021/05/03 02:09:10;;;;;;;2.17;1.98;;;9.50;54.50;;;;;;4718102;30;20064;-86
2021/05/03 02:11:36;;;;;;;2.40;1.83;;;9.50;54.60;;;;;;4731587;30;20056;-86
2021/05/03 02:14:03;;;;;;;2.20;1.90;;;9.50;54.60;;;;;;4733343;30;20519;-86
2021/05/03 02:16:29;;;;;;;2.05;1.85;;;9.50;54.60;;;;;;4728140;30;20044;-86
2021/05/03 02:18:55;;;;;;;2.50;2.10;;;9.50;54.60;;;;;;4737107;30;21265;-86
2021/05/03 02:21:21;;;;;;;2.65;2.00;;;9.40;54.60;;;;;;4765002;30;20070;-87
2021/05/03 02:23:47;;;;;;;2.45;1.90;;;9.40;54.60;;;;;;4711467;30;20036;-86
2021/05/03 02:26:14;;;;;;;3.00;1.95;;;9.40;54.70;;;;;;4744946;30;20040;-86
2021/05/03 02:28:40;;;;;;;2.65;2.10;;;9.30;54.60;;;;;;4754749;30;20036;-86
2021/05/03 02:31:06;;;;;;;2.28;2.08;;;9.30;54.60;;;;;;4736176;30;20093;-86
2021/05/03 02:33:31;;;;;;;2.72;1.98;;;9.30;54.70;;;;;;4755833;30;20515;-86
2021/05/03 02:35:57;;;;;;;2.60;2.03;;;9.30;54.70;;;;;;4739437;30;20139;-87
2021/05/03 02:38:24;;;;;;;2.60;2.10;;;9.30;54.70;;;;;;4742272;30;20028;-86
2021/05/03 02:40:50;;;;;;;2.83;2.30;;;9.20;54.70;;;;;;4743435;30;20053;-86
2021/05/03 02:43:16;;;;;;;2.15;1.92;;;9.20;54.70;;;;;;4725928;30;20033;-86
2021/05/03 02:45:42;;;;;;;2.53;2.03;;;9.20;54.70;;;;;;4749114;30;20048;-87
2021/05/03 02:48:08;;;;;;;2.85;2.25;;;9.10;54.80;;;;;;4733616;30;20402;-86
2021/05/03 02:50:35;;;;;;;2.67;2.08;;;9.20;54.80;;;;;;4750386;30;20045;-86
2021/05/03 02:53:00;;;;;;;2.97;2.38;;;9.10;54.80;;;;;;4716973;30;20047;-87
2021/05/03 02:55:26;;;;;;;3.45;2.45;;;9.10;54.80;;;;;;4737610;30;20036;-86
2021/05/03 02:57:53;;;;;;;2.78;2.10;;;9.10;54.80;;;;;;4720633;30;20045;-87
2021/05/03 03:00:27;;;;;;;3.45;2.42;;;9.10;55.00;;;;;;4734518;30;20033;-87
2021/05/03 03:02:53;;;;;;;2.88;2.17;;;9.10;55.00;;;;;;4747948;30;20044;-86
2021/05/03 03:05:19;;;;;;;3.42;2.40;;;9.00;54.90;;;;;;4738133;30;20124;-86
2021/05/03 03:07:45;;;;;;;3.10;2.30;;;9.00;54.90;;;;;;4738253;30;20553;-86
2021/05/03 03:10:11;;;;;;;3.58;2.58;;;9.00;55.00;;;;;;4732259;30;20034;-86
2021/05/03 03:12:37;;;;;;;2.53;2.20;;;9.00;55.00;;;;;;4732979;30;20048;-87
2021/05/03 03:15:04;;;;;;;3.83;2.10;;;9.00;55.00;;;;;;4731490;30;20037;-86
2021/05/03 03:17:30;;;;;;;2.85;2.20;;;8.90;55.00;;;;;;4733009;30;20050;-87
2021/05/03 03:19:56;;;;;;;2.58;2.03;;;8.90;55.00;;;;;;4730946;30;20041;-87
2021/05/03 03:22:25;;;;;;;2.95;2.22;;;8.90;55.10;;;;;;4753970;30;20047;-87
2021/05/03 03:24:51;;;;;;;3.08;2.13;;;8.90;55.10;;;;;;4734735;30;20037;-87
2021/05/03 03:27:16;;;;;;;2.95;2.30;;;8.80;55.00;;;;;;4726265;30;20039;-87
2021/05/03 03:29:42;;;;;;;2.97;2.28;;;8.80;55.10;;;;;;4722532;30;20037;-86
2021/05/03 03:32:08;;;;;;;2.95;2.42;;;8.80;55.10;;;;;;4736592;30;20091;-87
2021/05/03 03:34:34;;;;;;;5.03;2.97;;;8.80;55.10;;;;;;4734328;30;20029;-86
2021/05/03 03:36:59;;;;;;;3.22;2.72;;;8.80;55.20;;;;;;4748168;30;20045;-85
2021/05/03 03:39:25;;;;;;;3.00;2.30;;;8.80;55.20;;;;;;4724182;30;20037;-86
2021/05/03 03:41:51;;;;;;;2.30;2.10;;;8.70;55.10;;;;;;4750774;30;20102;-87
2021/05/03 03:44:17;;;;;;;3.28;2.40;;;8.70;55.10;;;;;;4706973;30;20029;-86
2021/05/03 03:46:42;;;;;;;2.95;2.22;;;8.70;55.10;;;;;;4734332;30;20109;-86
2021/05/03 03:49:08;;;;;;;3.35;2.35;;;8.70;55.20;;;;;;4707581;30;20047;-87
2021/05/03 03:51:34;;;;;;;3.20;2.22;;;8.70;55.20;;;;;;4730386;30;20049;-87
2021/05/03 03:54:00;;;;;;;4.63;2.70;;;8.70;55.30;;;;;;4727330;30;20072;-87
2021/05/03 03:56:28;;;;;;;3.03;2.30;;;8.70;55.30;;;;;;4721185;30;20045;-87
2021/05/03 03:58:54;;;;;;;3.70;2.30;;;8.60;55.30;;;;;;4753823;30;20032;-87
2021/05/03 04:01:21;;;;;;;4.15;2.50;;;8.60;55.30;;;;;;4733983;30;20041;-87
2021/05/03 04:03:48;;;;;;;3.45;2.70;;;8.60;55.30;;;;;;4737562;30;20094;-87
2021/05/03 04:09:13;;;;;;;2.95;2.20;;;8.50;55.40;;;;;;4742554;30;20036;-87
2021/05/03 04:27:38;;;;;;;3.58;2.58;;;8.40;55.50;;;;;;4751337;30;20040;-86
2021/05/03 04:30:07;;;;;;;2.50;2.20;;;8.40;55.50;;;;;;4739465;30;20036;-88
2021/05/03 04:32:33;;;;;;;3.30;2.53;;;8.40;55.60;;;;;;4728282;30;20040;-87
2021/05/03 04:34:58;;;;;;;3.58;2.63;;;8.40;55.60;;;;;;4754376;30;20036;-87
2021/05/03 04:37:24;;;;;;;4.15;2.78;;;8.40;55.60;;;;;;4750774;30;20075;-87
2021/05/03 04:39:50;;;;;;;3.42;2.88;;;8.40;55.60;;;;;;4727133;30;20522;-88
2021/05/03 04:42:16;;;;;;;3.95;2.92;;;8.40;55.60;;;;;;4739576;30;20094;-87
2021/05/03 04:44:42;;;;;;;3.47;2.50;;;8.40;55.70;;;;;;4739358;30;20399;-85
2021/05/03 04:47:07;;;;;;;3.80;2.85;;;8.40;55.60;;;;;;4716522;30;20063;-89
2021/05/03 04:49:33;;;;;;;4.03;2.70;;;8.40;55.60;;;;;;4731959;30;20048;-86
2021/05/03 04:51:59;;;;;;;3.95;2.97;;;8.30;55.70;;;;;;4738362;30;20999;-84
2021/05/03 04:54:25;;;;;;;3.95;3.20;;;8.40;55.70;;;;;;4749419;30;20098;-86
2021/05/03 04:56:50;;;;;;;4.88;2.72;;;8.30;55.60;;;;;;4734790;30;20091;-86
2021/05/03 04:59:16;;;;;;;3.72;2.72;;;8.30;55.70;;;;;;4738670;30;20041;-88
2021/05/03 05:01:42;;;;;;;4.20;3.08;;;8.40;56.10;;;;;;4735913;30;20139;-89
2021/05/03 05:04:08;;;;;;;5.03;3.38;;;8.30;55.70;;;;;;4758977;30;20040;-90
2021/05/03 05:06:33;;;;;;;4.78;3.28;;;8.30;55.70;;;;;;4738237;30;20068;-86
2021/05/03 05:09:04;;;;;;;4.00;2.97;;;8.40;55.70;;;;;;4721437;30;20137;-86
2021/05/03 05:11:31;;;;;;;4.00;2.97;;;8.30;55.70;;;;;;4714523;30;20045;-85
2021/05/03 05:13:57;;;;;;;3.72;2.95;;;8.40;55.70;;;;;;4720993;30;20519;-87
2021/05/03 05:16:24;;;;;;;4.80;3.50;;;8.40;55.70;;;;;;4750120;30;20041;-85
2021/05/03 05:18:50;;;;;;;4.43;3.17;;;8.30;56.30;;;;;;4732687;30;20029;-85
2021/05/03 05:21:16;;;;;;;3.85;3.15;;;8.40;55.80;;;;;;4720798;30;20123;-78
2021/05/03 05:23:41;;;;;;;3.85;3.13;;;8.40;55.80;;;;;;4736491;30;20029;-85
2021/05/03 05:26:08;;;;;;;4.45;2.92;;;8.40;55.80;;;;;;4742941;30;20044;-89
2021/05/03 05:28:34;;;;;;;4.15;2.88;;;8.40;55.80;;;;;;4735245;30;20036;-85
2021/05/03 05:31:00;;;;;;;4.13;2.85;;;8.40;55.80;;;;;;4734746;30;20137;-85
2021/05/03 05:33:26;;;;;;;4.55;3.38;;;8.40;55.80;;;;;;4727831;30;20033;-86
2021/05/03 05:35:52;;;;;;;4.32;2.95;;;8.40;55.80;;;;;;4731222;30;20479;-85
2021/05/03 05:38:18;;;;;;;3.30;2.75;;;8.40;56.00;;;;;;4734495;30;20437;-86
2021/05/03 05:40:44;;;;;;;3.85;2.80;;;8.40;55.80;;;;;;4733980;30;20029;-86
2021/05/03 05:43:10;;;;;;;4.18;3.00;;;8.40;55.80;;;;;;4749276;30;20036;-85
2021/05/03 05:45:36;;;;;;;3.88;3.20;;;8.40;55.80;;;;;;4736608;30;20049;-84
2021/05/03 05:48:02;;;;;;;3.75;3.05;;;8.40;55.80;;;;;;4720284;30;20101;-85
2021/05/03 05:50:28;;;;;;;4.75;3.40;;;8.40;55.80;;;;;;4749288;30;20037;-85
2021/05/03 05:52:55;;;;;;;4.35;3.00;;;8.40;55.80;;;;;;4729431;30;20102;-86
2021/05/03 05:55:21;;;;;;;3.97;2.80;;;8.50;55.90;;;;;;4731789;30;20048;-83
2021/05/03 05:57:46;;;;;;;4.53;3.00;;;8.50;55.90;;;;;;4751810;30;20036;-86
2021/05/03 06:00:13;;;;;;;3.65;2.80;;;8.50;55.90;;;;;;4729081;30;20380;-85
2021/05/03 06:02:43;;;;;;;3.83;2.90;;;8.50;55.90;;;;;;4746977;30;20036;-84
2021/05/03 06:05:09;;;;;;;4.70;3.33;;;8.50;55.90;;;;;;4756495;30;20517;-85
2021/05/03 06:07:35;;;;;;;3.83;2.97;;;8.50;55.90;;;;;;4754264;30;20048;-85
2021/05/03 06:10:01;;;;;;;4.50;3.03;;;8.60;55.90;;;;;;4746659;30;20394;-86
2021/05/03 06:12:26;;;;;;;3.20;2.72;;;8.60;55.90;;;;;;4745324;30;20355;-88
2021/05/03 06:14:53;;;;;;;4.60;3.10;;;8.60;55.90;;;;;;4735510;30;20538;-89
2021/05/03 06:17:20;;;;;;;4.00;2.80;;;8.60;55.90;;;;;;4749372;30;20052;-85
2021/05/03 06:19:47;;;;;;;3.88;2.90;;;8.60;56.00;;;;;;4734286;30;20041;-88
2021/05/03 06:22:13;;;;;;;4.00;2.88;;;8.60;55.90;;;;;;4731672;30;20122;-89
2021/05/03 06:24:39;;;;;;;4.18;3.17;;;8.60;56.00;;;;;;4733448;30;20044;-90
2021/05/03 06:27:05;;;;;;;4.32;3.10;;;8.70;56.00;;;;;;4738042;30;20032;-90
2021/05/03 06:29:31;;;;;;;5.03;2.92;;;8.70;56.00;;;;;;4729817;30;20591;-91
2021/05/03 06:31:58;;;;;;;3.72;2.60;;;8.70;56.10;;;;;;4731396;30;20045;-87
2021/05/03 06:34:30;;;;;;;3.75;2.58;;;8.70;56.10;;;;;;4731346;30;20483;-87
2021/05/03 06:36:56;;;;;;;3.40;2.58;;;8.70;56.10;;;;;;4730541;30;20532;-89
2021/05/03 06:39:22;;;;;;;4.70;2.83;;;8.70;56.10;;;;;;4734543;30;20395;-88
2021/05/03 06:41:49;;;;;;;4.40;2.92;;;8.80;56.10;;;;;;4743487;30;20040;-89
2021/05/03 06:44:15;;;;;;;4.32;3.15;;;8.80;56.10;;;;;;4739300;30;20029;-89
2021/05/03 06:46:41;;;;;;;4.45;2.97;;;8.80;56.10;;;;;;4740515;30;20056;-89
2021/05/03 06:49:07;;;;;;;4.70;3.00;;;8.80;56.10;;;;;;4720139;30;20037;-90
2021/05/03 06:51:33;;;;;;;3.63;2.53;;;8.80;56.00;;;;;;4731636;30;20052;-91
2021/05/03 06:53:58;;;;;;;3.60;2.70;;;8.90;56.10;;;;;;4749151;30;20106;-92
2021/05/03 06:56:24;;;;;;;3.40;2.80;;;8.90;56.10;;;;;;4733749;30;20043;-90
2021/05/03 06:58:51;;;;;;;3.63;2.70;;;8.90;56.10;;;;;;4732274;30;20405;-90
2021/05/03 07:01:17;;;;;;;3.90;2.88;;;8.90;56.00;;;;;;4722920;30;20037;-91
2021/05/03 07:03:43;;;;;;;4.70;2.83;;;9.00;56.10;;;;;;4736312;30;20429;-92
2021/05/03 07:06:10;;;;;;;3.42;2.90;;;9.00;56.10;;;;;;4736602;30;20033;-91
2021/05/03 07:08:36;;;;;;;4.03;2.90;;;9.00;56.10;;;;;;4719161;30;20025;-91
2021/05/03 07:11:08;;;;;;;3.83;2.85;;;9.10;56.10;;;;;;4748123;30;20112;-90
2021/05/03 07:13:35;;;;;;;4.70;3.03;;;9.10;56.00;;;;;;4721698;30;20049;-90
2021/05/03 07:16:01;;;;;;;3.90;2.90;;;9.10;56.00;;;;;;4746621;30;20047;-92
2021/05/03 07:18:27;;;;;;;3.40;2.40;;;9.10;56.00;;;;;;4719721;30;20041;-90
2021/05/03 07:20:53;;;;;;;3.28;2.60;;;9.10;56.00;;;;;;4719089;30;20171;-91
2021/05/03 07:23:19;;;;;;;3.60;2.67;;;9.20;56.00;;;;;;4723942;30;20052;-91
2021/05/03 07:25:44;;;;;;;3.90;2.80;;;9.20;56.00;;;;;;4710593;30;20036;-90
2021/05/03 07:28:10;;;;;;;3.65;2.63;;;9.30;56.60;;;;;;4719635;30;20045;-91
2021/05/03 07:30:39;;;;;;;3.47;2.55;;;9.30;56.00;;;;;;4725605;30;20040;-93
2021/05/03 07:33:06;;;;;;;3.83;2.63;;;9.30;56.00;;;;;;4732317;30;20045;-90
2021/05/03 07:35:31;;;;;;;3.65;2.78;;;9.30;56.00;;;;;;4722752;30;20044;-91
2021/05/03 07:37:57;;;;;;;3.78;2.60;;;9.40;56.10;;;;;;4737022;30;20037;-90
2021/05/03 07:40:23;;;;;;;3.45;2.53;;;9.40;56.10;;;;;;4738450;30;20036;-91
2021/05/03 07:42:49;;;;;;;3.03;2.53;;;9.50;56.10;;;;;;4737300;30;20040;-92
2021/05/03 07:45:16;;;;;;;3.20;2.58;;;9.50;56.10;;;;;;4721173;30;20398;-92
2021/05/03 07:47:44;;;;;;;3.60;3.08;;;9.50;56.10;;;;;;4736878;30;20052;-92
2021/05/03 07:50:11;;;;;;;4.22;2.85;;;9.50;56.10;;;;;;4736414;30;20052;-92
2021/05/03 07:52:37;;;;;;;3.38;2.58;;;9.60;56.10;;;;;;4743434;30;20073;-92
2021/05/03 07:55:04;;;;;;;3.33;2.45;;;9.60;56.10;;;;;;4733905;30;20069;-91
2021/05/03 07:57:30;;;;;;;3.58;2.40;;;9.70;56.20;;;;;;4722374;30;20119;-89
2021/05/03 07:59:56;;;;;;;3.63;2.63;;;9.70;56.10;;;;;;4733866;30;20129;-88
2021/05/03 08:02:22;;;;;;;4.03;2.60;;;9.70;56.10;;;;;;4722484;30;20048;-86
2021/05/03 08:04:48;;;;;;;3.50;2.70;;;9.80;56.10;;;;;;4736667;30;20546;-92
2021/05/03 08:07:14;;;;;;;3.53;2.42;;;9.80;56.10;;;;;;4750473;30;20502;-92
2021/05/03 08:09:40;;;;;;;3.92;2.67;;;9.90;56.10;;;;;;4750946;30;20128;-88
2021/05/03 08:12:08;;;;;;;3.90;2.75;;;9.90;56.10;;;;;;4732571;30;20049;-90
2021/05/03 08:14:35;;;;;;;4.72;3.15;;;10.00;56.10;;;;;;4719804;30;20040;-87
2021/05/03 08:17:04;;;;;;;4.90;3.40;;;10.00;56.10;;;;;;4746949;30;20091;-86
2021/05/03 08:19:30;;;;;;;4.35;3.33;;;10.10;56.10;;;;;;4724839;30;20037;-88
2021/05/03 08:21:58;;;;;;;4.18;2.92;;;10.10;56.10;;;;;;4750085;30;20041;-86
2021/05/03 08:24:24;;;;;;;3.75;2.70;;;10.20;56.10;;;;;;4713968;30;20025;-87
2021/05/03 08:26:50;;;;;;;4.50;3.25;;;10.20;56.10;;;;;;4731302;30;20080;-87
2021/05/03 08:29:16;;;;;;;4.15;3.10;;;10.30;56.10;;;;;;4721057;30;20072;-88
2021/05/03 08:31:42;;;;;;;4.25;3.28;;;10.30;56.00;;;;;;4750542;30;20056;-88
2021/05/03 08:34:07;;;;;;;5.35;3.40;;;10.40;56.10;;;;;;4749640;30;20467;-87
2021/05/03 08:36:35;;;;;;;4.88;3.55;;;10.50;56.00;;;;;;4703844;30;20040;-88
2021/05/03 08:39:03;;;;;;;4.85;3.58;;;10.60;56.00;;;;;;4735777;30;20059;-88
2021/05/03 08:41:28;;;;;;;5.53;3.83;;;10.70;56.00;;;;;;4737075;30;20033;-88
2021/05/03 08:43:54;;;;;;;5.18;3.72;;;10.70;55.90;;;;;;4764409;30;20076;-86
2021/05/03 08:46:28;;;;;;;4.70;3.53;;;10.80;55.80;;;;;;4738541;30;20064;-86
2021/05/03 08:49:01;;;;;;;5.05;3.60;;;10.90;55.90;;;;;;4718273;30;20037;-86
2021/05/03 08:53:58;;;;;;;4.78;3.63;;;11.00;55.70;;;;;;4753323;30;20039;-86
2021/05/03 08:56:24;;;;;;;5.00;3.58;;;11.10;55.80;;;;;;4749967;30;20119;-86
2021/05/03 08:58:50;;;;;;;4.85;3.50;;;11.20;55.70;;;;;;4738763;30;20119;-85
2021/05/03 09:01:17;;;;;;;4.72;3.63;;;11.20;55.70;;;;;;4763371;30;20028;-86
2021/05/03 09:03:47;;;;;;;5.15;3.83;;;11.30;55.70;;;;;;4720794;30;20059;-86
2021/05/03 09:06:13;;;;;;;5.70;4.15;;;11.40;55.70;;;;;;4737387;30;20056;-87
2021/05/03 09:08:39;;;;;;;5.70;4.22;;;11.50;55.70;;;;;;4749690;30;20072;-86
2021/05/03 09:11:05;;;;;;;6.07;4.45;;;11.60;55.80;;;;;;4734201;30;20029;-85
2021/05/03 09:13:34;;;;;;;4.60;3.60;;;11.70;55.90;;;;;;4732219;30;20076;-88
2021/05/03 09:16:12;;;;;;;5.72;4.15;;;11.70;55.90;;;;;;4734544;30;20119;-85
2021/05/03 09:18:41;;;;;;;5.57;3.85;;;11.80;55.90;;;;;;4749691;30;20103;-87
2021/05/03 09:21:21;;;;;;;5.10;3.85;;;11.90;55.80;;;;;;4749707;30;20056;-88
2021/05/03 09:24:16;;;;;;;5.70;4.22;;;12.00;55.80;;;;;;4734684;30;20119;-87
2021/05/03 09:26:52;;;;;;;5.22;3.88;;;12.10;55.80;;;;;;4749124;30;20127;-86
2021/05/03 09:29:28;;;;;;;5.75;4.15;;;12.20;55.70;;;;;;4735348;30;20033;-87
2021/05/03 09:32:06;;;;;;;5.13;3.88;;;12.20;55.70;;;;;;4748870;30;20044;-87
2021/05/03 09:34:38;;;;;;;5.63;4.30;;;12.30;55.60;;;;;;4737951;30;20091;-86
2021/05/03 09:37:27;;;;;;;5.68;4.43;;;12.40;55.60;;;;;;4732320;30;20515;-86
2021/05/03 09:40:11;;;;;;;5.90;4.55;;;12.50;55.70;;;;;;4728845;30;20125;-87
2021/05/03 09:42:43;;;;;;;6.47;4.43;;;12.60;55.70;;;;;;4749365;30;20624;-87
2021/05/03 09:45:15;;;;;;;5.97;4.20;;;12.70;55.70;;;;;;4748533;30;20043;-87
2021/05/03 09:47:42;;;;;;;6.75;4.85;;;12.80;55.60;;;;;;4752679;30;20051;-86
2021/05/03 09:50:14;;;;;;;5.32;4.28;;;12.90;55.60;;;;;;4743748;30;20120;-87
2021/05/03 09:53:09;;;;;;;6.07;4.63;;;13.00;55.60;;;;;;4749118;30;20044;-86
2021/05/03 09:55:38;;;;;;;5.60;4.30;;;13.10;55.70;;;;;;4749255;30;20029;-88
2021/05/03 09:58:17;;;;;;;5.85;4.63;;;13.20;55.60;;;;;;4749311;30;20459;-86
2021/05/03 10:00:55;;;;;;;5.95;4.43;;;13.30;55.70;;;;;;4734461;30;20064;-86
2021/05/03 10:06:13;;;;;;;5.72;4.43;;;13.50;55.70;;;;;;4748533;30;20422;-85
2021/05/03 10:08:40;;;;;;;5.72;4.47;;;13.60;55.60;;;;;;4748683;30;20037;-86
2021/05/03 10:11:09;;;;;;;5.75;4.35;;;13.70;55.60;;;;;;4749944;30;20033;-85
2021/05/03 10:13:37;;;;;;;6.28;4.45;;;13.80;55.70;;;;;;4727469;30;20495;-86
2021/05/03 10:16:06;;;;;;;5.85;4.53;;;13.90;55.70;;;;;;4728701;30;20052;-86
2021/05/03 10:18:35;;;;;;;6.28;4.32;;;14.00;55.80;;;;;;4735674;30;20033;-85
2021/05/03 10:21:01;;;;;;;5.68;4.20;;;14.10;55.80;;;;;;4756494;30;20089;-86
2021/05/03 10:23:27;;;;;;;5.70;4.30;;;14.20;55.80;;;;;;4736188;30;20496;-85
2021/05/03 10:25:59;;;;;;;5.47;4.55;;;14.30;55.70;;;;;;4734679;30;20036;-86
2021/05/03 10:28:26;;;;;;;5.72;4.32;;;14.30;55.60;;;;;;4733889;30;20094;-85
2021/05/03 10:30:57;;;;;;;5.53;4.22;;;14.40;55.50;;;;;;4733510;30;20031;-86
2021/05/03 10:33:35;;;;;;;5.78;4.38;;;14.50;55.60;;;;;;4748451;30;20052;-86
2021/05/03 10:36:01;;;;;;;6.00;4.40;;;14.60;55.60;;;;;;4755061;30;20037;-85
2021/05/03 10:38:27;;;;;;;5.70;4.30;;;14.70;55.40;;;;;;4718179;30;20284;-86
2021/05/03 10:40:53;;;;;;;5.53;4.50;;;14.80;55.40;;;;;;4748368;30;20032;-85
2021/05/03 10:43:21;;;;;;;5.60;4.22;;;14.80;55.30;;;;;;4731519;30;20032;-82
2021/05/03 10:48:37;;;;;;;5.85;4.20;;;15.00;55.30;;;;;;4746999;30;20032;-83
2021/05/03 10:51:07;;;;;;;5.70;4.13;;;15.10;55.20;;;;;;4745037;30;20029;-83
2021/05/03 10:53:39;;;;;;;5.45;4.05;;;15.20;55.10;;;;;;4733202;30;20037;-84
2021/05/03 10:56:07;;;;;;;5.22;4.25;;;15.20;55.30;;;;;;4733139;30;20041;-83
2021/05/03 10:58:52;;;;;;;5.22;4.13;;;15.40;55.40;;;;;;4730122;30;20029;-82
2021/05/03 11:01:19;;;;;;;5.93;4.10;;;15.40;55.50;;;;;;4742352;30;20060;-84
2021/05/03 11:03:57;;;;;;;5.35;4.13;;;15.50;55.30;;;;;;4747524;30;20037;-83
2021/05/03 11:06:41;;;;;;;5.70;4.43;;;15.60;55.40;;;;;;4747905;30;20509;-85
2021/05/03 11:09:32;;;;;;;5.43;4.20;;;15.60;55.20;;;;;;4754550;30;20031;-84
2021/05/03 11:12:21;;;;;;;5.72;4.00;;;15.70;55.20;;;;;;4735971;30;20318;-83
2021/05/03 11:15:15;;;;;;;5.10;4.15;;;15.80;55.00;;;;;;4751632;30;20069;-82
2021/05/03 11:18:21;;;;;;;5.25;3.83;;;15.90;55.10;;;;;;4722435;30;20037;-81
2021/05/03 11:21:17;;;;;;;;;;;16.00;55.10;;;;;;4740927;30;20041;-87
2021/05/03 11:23:44;;;;;;;5.10;3.17;;;16.00;54.90;;;;;;4743027;30;20023;-85
2021/05/03 11:26:30;;;;;;;5.22;3.88;;;16.10;54.80;;;;;;4746195;30;20186;-85
2021/05/03 11:29:09;;;;;;;5.45;4.22;;;16.10;55.00;;;;;;4767113;30;20028;-81
2021/05/03 11:31:35;;;;;;;5.47;3.78;;;16.20;55.00;;;;;;4714497;30;20135;-82
2021/05/03 11:34:11;;;;;;;4.68;3.88;;;16.30;55.00;;;;;;4737080;30;20111;-82
2021/05/03 11:36:42;;;;;;;5.30;4.18;;;16.30;54.90;;;;;;4743381;30;20040;-81
2021/05/03 11:42:21;;;;;;;5.75;4.47;;;16.50;55.00;;;;;;4727114;30;20025;-80
2021/05/03 11:44:52;;;;;;;5.32;3.67;;;16.50;54.90;;;;;;4736477;30;20055;-81
2021/05/03 11:47:26;;;;;;;5.22;4.38;;;16.60;54.90;;;;;;4726177;30;20486;-81
2021/05/03 11:49:51;;;;;;;5.68;4.10;;;16.60;54.70;;;;;;4750001;30;20040;-81
2021/05/03 11:52:26;;;;;;;5.13;4.03;;;16.70;54.60;;;;;;4720644;30;20056;-82
2021/05/03 11:54:52;;;;;;;4.82;3.80;;;16.80;54.60;;;;;;4750359;30;20040;-82
2021/05/03 11:57:19;;;;;;;5.28;3.80;;;16.80;54.40;;;;;;4732603;30;20399;-82
2021/05/03 11:59:46;;;;;;;5.28;4.05;;;16.90;54.40;;;;;;4735597;30;20044;-81
2021/05/03 12:02:15;;;;;;;6.20;4.18;;;17.00;54.40;;;;;;4740648;30;20123;-81
2021/05/03 12:04:45;;;;;;;4.43;3.50;;;17.00;54.30;;;;;;4757148;30;20044;-82
2021/05/03 12:07:12;;;;;;;5.63;4.40;;;17.00;54.30;;;;;;4721277;30;20028;-81
2021/05/03 12:09:38;;;;;;;5.07;4.03;;;17.10;54.30;;;;;;4736052;30;20024;-82
2021/05/03 12:12:05;;;;;;;4.93;3.85;;;17.20;54.30;;;;;;4734749;30;20572;-82
2021/05/03 12:14:50;;;;;;;4.57;3.63;;;17.20;54.10;;;;;;4736307;30;20044;-81
2021/05/03 12:17:30;;;;;;;4.82;3.92;;;17.30;54.00;;;;;;4749791;30;20047;-82
2021/05/03 12:20:05;;;;;;;4.03;3.20;;;17.30;53.90;;;;;;4748820;30;20037;-81
2021/05/03 12:22:31;;;;;;;4.97;3.95;;;17.40;53.90;;;;;;4749236;30;20033;-80
2021/05/03 12:25:10;;;;;;;4.78;3.72;;;17.40;53.80;;;;;;4720006;30;20039;-81
2021/05/03 12:27:38;;;;;;;4.78;3.65;;;17.50;53.80;;;;;;4737908;30;20424;-81
2021/05/03 12:30:08;;;;;;;5.10;3.67;;;17.50;53.70;;;;;;4734878;30;20051;-83
2021/05/03 12:32:36;;;;;;;4.55;3.80;;;17.60;53.70;;;;;;4746648;30;20051;-82
2021/05/03 12:35:15;;;;;;;4.75;3.50;;;17.60;53.60;;;;;;4749382;30;20403;-82
2021/05/03 12:37:41;;;;;;;5.25;3.97;;;17.60;53.50;;;;;;4749191;30;20040;-82
2021/05/03 12:40:14;;;;;;;5.40;4.20;;;17.70;53.40;;;;;;4720535;30;20041;-82
2021/05/03 12:42:45;;;;;;;5.05;4.07;;;17.80;53.40;;;;;;4731762;30;20253;-82
2021/05/03 12:45:17;;;;;;;4.30;3.42;;;17.80;53.30;;;;;;4749562;30;20063;-82
2021/05/03 12:51:14;;;;;;;4.45;3.45;;;17.90;53.30;;;;;;4761686;30;20037;-82
2021/05/03 12:59:03;;;;;;;4.43;3.70;;;18.00;53.10;;;;;;4749083;30;20124;-82
2021/05/03 13:01:38;;;;;;;4.80;3.80;;;18.00;53.10;;;;;;4738792;30;20033;-82
2021/05/03 13:07:07;;;;;;;4.60;3.80;;;18.10;53.10;;;;;;4731767;30;20095;-84
2021/05/03 13:10:04;;;;;;;5.07;3.85;;;18.10;53.10;;;;;;4728054;30;20033;-84
2021/05/03 13:29:14;;;;;;;4.93;3.97;;;18.40;52.80;;;;;;4731526;30;20041;-82
2021/05/03 13:31:41;;;;;;;5.00;3.63;;;18.40;52.70;;;;;;4739043;30;20037;-82
2021/05/03 13:34:12;;;;;;;4.72;3.70;;;18.40;52.60;;;;;;4723604;30;20091;-82
2021/05/03 13:36:40;;;;;;;4.60;3.45;;;18.50;52.50;;;;;;4740960;30;20040;-83
2021/05/03 13:39:08;;;;;;;4.53;3.42;;;18.50;52.50;;;;;;4747329;30;20025;-83
2021/05/03 13:41:38;;;;;;;4.63;3.40;;;18.60;52.50;;;;;;4741777;30;20066;-81
2021/05/03 13:44:05;;;;;;;4.97;3.67;;;18.60;52.40;;;;;;4735275;30;20037;-83
2021/05/03 13:46:31;;;;;;;4.60;3.65;;;18.60;52.40;;;;;;4723152;30;20061;-83
2021/05/03 13:48:57;;;;;;;4.80;3.92;;;18.70;52.30;;;;;;4730361;30;20119;-83
2021/05/03 13:51:25;;;;;;;4.10;3.38;;;18.70;52.20;;;;;;4733575;30;20040;-83
2021/05/03 13:53:51;;;;;;;4.53;3.50;;;18.70;52.20;;;;;;4733818;30;20060;-83
2021/05/03 13:56:17;;;;;;;4.80;3.80;;;18.80;52.20;;;;;;4732817;30;20113;-83
2021/05/03 13:58:43;;;;;;;4.57;3.47;;;18.80;52.10;;;;;;4745233;30;20074;-83